sensor_id;sensor_type;location;lat;lon;timestamp;P1;durP1;ratioP1;P2;durP2;ratioP2
51636;SDS011;37713;53.254;6.460;2023-05-19T00:00:55;13.55;;;3.92;;
51636;SDS011;37713;53.254;6.460;2023-05-19T00:03:22;13.60;;;4.80;;
51636;SDS011;37713;53.254;6.460;2023-05-19T00:05:48;13.93;;;4.00;;
51636;SDS011;37713;53.254;6.460;2023-05-19T00:08:17;12.88;;;4.82;;
51636;SDS011;37713;53.254;6.460;2023-05-19T00:10:44;14.48;;;4.97;;
51636;SDS011;37713;53.254;6.460;2023-05-19T00:13:11;12.88;;;5.68;;
51636;SDS011;37713;53.254;6.460;2023-05-19T00:15:37;12.07;;;4.82;;
51636;SDS011;37713;53.254;6.460;2023-05-19T00:18:03;10.82;;;4.72;;
51636;SDS011;37713;53.254;6.460;2023-05-19T00:20:29;11.18;;;4.55;;
51636;SDS011;37713;53.254;6.460;2023-05-19T00:22:54;10.50;;;4.50;;
51636;SDS011;37713;53.254;6.460;2023-05-19T00:25:23;10.43;;;4.35;;
51636;SDS011;37713;53.254;6.460;2023-05-19T00:27:48;9.43;;;4.10;;
51636;SDS011;37713;53.254;6.460;2023-05-19T00:30:14;13.57;;;4.60;;
51636;SDS011;37713;53.254;6.460;2023-05-19T00:32:40;8.52;;;4.35;;
51636;SDS011;37713;53.254;6.460;2023-05-19T00:35:06;10.88;;;4.80;;
51636;SDS011;37713;53.254;6.460;2023-05-19T00:37:32;11.95;;;4.97;;
51636;SDS011;37713;53.254;6.460;2023-05-19T00:39:58;12.38;;;4.30;;
51636;SDS011;37713;53.254;6.460;2023-05-19T00:42:23;11.82;;;4.60;;
51636;SDS011;37713;53.254;6.460;2023-05-19T00:44:50;9.15;;;4.13;;
51636;SDS011;37713;53.254;6.460;2023-05-19T00:47:16;14.23;;;4.70;;
51636;SDS011;37713;53.254;6.460;2023-05-19T00:49:42;10.25;;;4.13;;
51636;SDS011;37713;53.254;6.460;2023-05-19T00:52:08;14.65;;;3.92;;
51636;SDS011;37713;53.254;6.460;2023-05-19T00:54:33;8.95;;;3.90;;
51636;SDS011;37713;53.254;6.460;2023-05-19T00:57:00;10.07;;;3.85;;
51636;SDS011;37713;53.254;6.460;2023-05-19T00:59:26;9.40;;;4.00;;
51636;SDS011;37713;53.254;6.460;2023-05-19T01:01:51;11.75;;;4.03;;
51636;SDS011;37713;53.254;6.460;2023-05-19T01:04:18;12.10;;;4.18;;
51636;SDS011;37713;53.254;6.460;2023-05-19T01:06:48;15.52;;;4.07;;
51636;SDS011;37713;53.254;6.460;2023-05-19T01:09:19;10.98;;;3.75;;
51636;SDS011;37713;53.254;6.460;2023-05-19T01:11:46;11.65;;;3.70;;
51636;SDS011;37713;53.254;6.460;2023-05-19T01:14:15;12.50;;;4.03;;
51636;SDS011;37713;53.254;6.460;2023-05-19T01:16:42;12.52;;;4.10;;
51636;SDS011;37713;53.254;6.460;2023-05-19T01:22:21;13.38;;;3.67;;
51636;SDS011;37713;53.254;6.460;2023-05-19T01:32:41;13.40;;;4.13;;
51636;SDS011;37713;53.254;6.460;2023-05-19T01:35:09;10.52;;;3.30;;
51636;SDS011;37713;53.254;6.460;2023-05-19T01:37:38;12.35;;;3.47;;
51636;SDS011;37713;53.254;6.460;2023-05-19T01:40:06;10.48;;;3.45;;
51636;SDS011;37713;53.254;6.460;2023-05-19T01:42:33;11.90;;;3.03;;
51636;SDS011;37713;53.254;6.460;2023-05-19T01:45:02;11.32;;;3.03;;
51636;SDS011;37713;53.254;6.460;2023-05-19T01:47:31;11.95;;;3.60;;
51636;SDS011;37713;53.254;6.460;2023-05-19T01:50:02;8.00;;;3.00;;
51636;SDS011;37713;53.254;6.460;2023-05-19T01:52:28;13.02;;;3.30;;
51636;SDS011;37713;53.254;6.460;2023-05-19T01:54:54;9.73;;;3.45;;
51636;SDS011;37713;53.254;6.460;2023-05-19T01:59:59;11.52;;;3.50;;
51636;SDS011;37713;53.254;6.460;2023-05-19T02:08:20;10.27;;;3.50;;
51636;SDS011;37713;53.254;6.460;2023-05-19T02:13:49;14.02;;;3.20;;
51636;SDS011;37713;53.254;6.460;2023-05-19T02:16:20;12.38;;;3.42;;
51636;SDS011;37713;53.254;6.460;2023-05-19T02:18:52;11.48;;;3.53;;
51636;SDS011;37713;53.254;6.460;2023-05-19T02:21:18;10.57;;;3.28;;
51636;SDS011;37713;53.254;6.460;2023-05-19T02:23:44;10.55;;;3.70;;
51636;SDS011;37713;53.254;6.460;2023-05-19T02:26:10;8.85;;;3.08;;
51636;SDS011;37713;53.254;6.460;2023-05-19T02:28:36;11.38;;;3.58;;
51636;SDS011;37713;53.254;6.460;2023-05-19T02:31:02;11.15;;;3.30;;
51636;SDS011;37713;53.254;6.460;2023-05-19T02:33:30;9.80;;;3.17;;
51636;SDS011;37713;53.254;6.460;2023-05-19T02:35:56;8.88;;;3.13;;
51636;SDS011;37713;53.254;6.460;2023-05-19T02:38:22;11.82;;;3.25;;
51636;SDS011;37713;53.254;6.460;2023-05-19T02:40:49;11.98;;;3.15;;
51636;SDS011;37713;53.254;6.460;2023-05-19T02:43:16;11.88;;;3.28;;
51636;SDS011;37713;53.254;6.460;2023-05-19T02:45:42;13.15;;;3.80;;
51636;SDS011;37713;53.254;6.460;2023-05-19T02:48:08;8.40;;;3.30;;
51636;SDS011;37713;53.254;6.460;2023-05-19T02:50:33;9.77;;;3.42;;
51636;SDS011;37713;53.254;6.460;2023-05-19T02:52:59;9.43;;;2.97;;
51636;SDS011;37713;53.254;6.460;2023-05-19T02:55:26;14.27;;;3.30;;
51636;SDS011;37713;53.254;6.460;2023-05-19T02:57:52;10.07;;;3.17;;
51636;SDS011;37713;53.254;6.460;2023-05-19T03:00:18;10.68;;;3.45;;
51636;SDS011;37713;53.254;6.460;2023-05-19T03:02:44;9.50;;;2.80;;
51636;SDS011;37713;53.254;6.460;2023-05-19T03:05:10;10.20;;;3.17;;
51636;SDS011;37713;53.254;6.460;2023-05-19T03:07:36;10.25;;;3.30;;
51636;SDS011;37713;53.254;6.460;2023-05-19T03:10:01;11.30;;;3.10;;
51636;SDS011;37713;53.254;6.460;2023-05-19T03:12:28;11.32;;;2.83;;
51636;SDS011;37713;53.254;6.460;2023-05-19T03:14:54;12.52;;;3.10;;
51636;SDS011;37713;53.254;6.460;2023-05-19T03:17:19;8.43;;;2.80;;
51636;SDS011;37713;53.254;6.460;2023-05-19T03:19:45;8.70;;;2.80;;
51636;SDS011;37713;53.254;6.460;2023-05-19T03:22:11;11.48;;;3.15;;
51636;SDS011;37713;53.254;6.460;2023-05-19T03:24:37;8.13;;;2.67;;
51636;SDS011;37713;53.254;6.460;2023-05-19T03:27:03;12.57;;;3.33;;
51636;SDS011;37713;53.254;6.460;2023-05-19T03:29:30;10.15;;;3.20;;
51636;SDS011;37713;53.254;6.460;2023-05-19T03:31:55;12.73;;;3.60;;
51636;SDS011;37713;53.254;6.460;2023-05-19T03:34:21;10.68;;;3.00;;
51636;SDS011;37713;53.254;6.460;2023-05-19T03:36:47;10.50;;;3.10;;
51636;SDS011;37713;53.254;6.460;2023-05-19T03:39:14;10.32;;;2.63;;
51636;SDS011;37713;53.254;6.460;2023-05-19T03:41:41;12.07;;;3.25;;
51636;SDS011;37713;53.254;6.460;2023-05-19T03:44:07;10.25;;;3.47;;
51636;SDS011;37713;53.254;6.460;2023-05-19T03:46:32;11.45;;;3.33;;
51636;SDS011;37713;53.254;6.460;2023-05-19T03:48:58;12.43;;;2.70;;
51636;SDS011;37713;53.254;6.460;2023-05-19T03:51:24;10.48;;;3.00;;
51636;SDS011;37713;53.254;6.460;2023-05-19T03:53:52;8.70;;;3.05;;
51636;SDS011;37713;53.254;6.460;2023-05-19T03:56:18;10.63;;;3.38;;
51636;SDS011;37713;53.254;6.460;2023-05-19T03:58:47;8.00;;;2.67;;
51636;SDS011;37713;53.254;6.460;2023-05-19T04:01:13;10.38;;;2.97;;
51636;SDS011;37713;53.254;6.460;2023-05-19T04:03:39;9.00;;;2.88;;
51636;SDS011;37713;53.254;6.460;2023-05-19T04:06:05;8.93;;;3.00;;
51636;SDS011;37713;53.254;6.460;2023-05-19T04:08:32;8.82;;;3.17;;
51636;SDS011;37713;53.254;6.460;2023-05-19T04:10:57;9.32;;;3.20;;
51636;SDS011;37713;53.254;6.460;2023-05-19T04:13:23;7.78;;;3.15;;
51636;SDS011;37713;53.254;6.460;2023-05-19T04:15:49;10.80;;;3.08;;
51636;SDS011;37713;53.254;6.460;2023-05-19T04:18:15;10.27;;;3.22;;
51636;SDS011;37713;53.254;6.460;2023-05-19T04:20:41;11.95;;;2.95;;
51636;SDS011;37713;53.254;6.460;2023-05-19T04:23:06;9.25;;;2.85;;
51636;SDS011;37713;53.254;6.460;2023-05-19T04:25:33;8.85;;;3.45;;
51636;SDS011;37713;53.254;6.460;2023-05-19T04:28:00;7.85;;;3.17;;
51636;SDS011;37713;53.254;6.460;2023-05-19T04:30:27;6.28;;;2.80;;
51636;SDS011;37713;53.254;6.460;2023-05-19T04:32:53;10.25;;;2.80;;
51636;SDS011;37713;53.254;6.460;2023-05-19T04:35:19;9.93;;;3.28;;
51636;SDS011;37713;53.254;6.460;2023-05-19T04:37:46;10.95;;;3.20;;
51636;SDS011;37713;53.254;6.460;2023-05-19T04:40:12;12.48;;;3.25;;
51636;SDS011;37713;53.254;6.460;2023-05-19T04:42:38;13.15;;;3.00;;
51636;SDS011;37713;53.254;6.460;2023-05-19T04:45:06;12.65;;;3.33;;
51636;SDS011;37713;53.254;6.460;2023-05-19T04:47:33;10.88;;;3.33;;
51636;SDS011;37713;53.254;6.460;2023-05-19T04:50:02;10.30;;;3.00;;
51636;SDS011;37713;53.254;6.460;2023-05-19T04:52:28;12.02;;;3.70;;
51636;SDS011;37713;53.254;6.460;2023-05-19T04:54:54;11.35;;;3.55;;
51636;SDS011;37713;53.254;6.460;2023-05-19T04:57:20;14.95;;;3.22;;
51636;SDS011;37713;53.254;6.460;2023-05-19T04:59:46;10.95;;;3.15;;
51636;SDS011;37713;53.254;6.460;2023-05-19T05:02:12;11.85;;;3.80;;
51636;SDS011;37713;53.254;6.460;2023-05-19T05:04:38;11.80;;;3.70;;
51636;SDS011;37713;53.254;6.460;2023-05-19T05:07:07;14.25;;;4.10;;
51636;SDS011;37713;53.254;6.460;2023-05-19T05:09:32;12.40;;;3.85;;
51636;SDS011;37713;53.254;6.460;2023-05-19T05:11:59;13.05;;;4.15;;
51636;SDS011;37713;53.254;6.460;2023-05-19T05:14:26;13.55;;;4.18;;
51636;SDS011;37713;53.254;6.460;2023-05-19T05:16:52;13.02;;;4.70;;
51636;SDS011;37713;53.254;6.460;2023-05-19T05:19:18;13.32;;;4.97;;
51636;SDS011;37713;53.254;6.460;2023-05-19T05:21:46;14.32;;;5.45;;
51636;SDS011;37713;53.254;6.460;2023-05-19T05:24:12;14.55;;;4.78;;
51636;SDS011;37713;53.254;6.460;2023-05-19T05:26:38;18.58;;;5.63;;
51636;SDS011;37713;53.254;6.460;2023-05-19T05:29:04;14.73;;;5.18;;
51636;SDS011;37713;53.254;6.460;2023-05-19T05:31:30;14.02;;;5.05;;
51636;SDS011;37713;53.254;6.460;2023-05-19T05:33:56;15.25;;;5.10;;
51636;SDS011;37713;53.254;6.460;2023-05-19T05:36:22;12.52;;;5.20;;
51636;SDS011;37713;53.254;6.460;2023-05-19T05:38:48;14.30;;;5.47;;
51636;SDS011;37713;53.254;6.460;2023-05-19T05:41:14;16.00;;;5.60;;
51636;SDS011;37713;53.254;6.460;2023-05-19T05:43:40;15.32;;;5.93;;
51636;SDS011;37713;53.254;6.460;2023-05-19T05:46:05;17.75;;;5.82;;
51636;SDS011;37713;53.254;6.460;2023-05-19T05:48:31;15.63;;;6.35;;
51636;SDS011;37713;53.254;6.460;2023-05-19T05:50:57;16.23;;;5.65;;
51636;SDS011;37713;53.254;6.460;2023-05-19T05:53:24;14.18;;;5.63;;
51636;SDS011;37713;53.254;6.460;2023-05-19T05:55:54;19.75;;;6.35;;
51636;SDS011;37713;53.254;6.460;2023-05-19T05:58:20;15.50;;;5.90;;
51636;SDS011;37713;53.254;6.460;2023-05-19T06:00:46;15.75;;;5.78;;
51636;SDS011;37713;53.254;6.460;2023-05-19T06:03:13;12.10;;;6.03;;
51636;SDS011;37713;53.254;6.460;2023-05-19T06:05:40;14.93;;;5.90;;
51636;SDS011;37713;53.254;6.460;2023-05-19T06:08:06;13.02;;;6.03;;
51636;SDS011;37713;53.254;6.460;2023-05-19T06:10:32;18.25;;;6.50;;
51636;SDS011;37713;53.254;6.460;2023-05-19T06:12:59;15.38;;;6.43;;
51636;SDS011;37713;53.254;6.460;2023-05-19T06:15:25;18.52;;;6.78;;
51636;SDS011;37713;53.254;6.460;2023-05-19T06:17:51;15.75;;;6.63;;
51636;SDS011;37713;53.254;6.460;2023-05-19T06:20:17;18.70;;;6.80;;
51636;SDS011;37713;53.254;6.460;2023-05-19T06:22:42;17.52;;;7.18;;
51636;SDS011;37713;53.254;6.460;2023-05-19T06:25:08;14.88;;;7.00;;
51636;SDS011;37713;53.254;6.460;2023-05-19T06:27:34;16.23;;;7.50;;
51636;SDS011;37713;53.254;6.460;2023-05-19T06:30:00;18.70;;;6.82;;
51636;SDS011;37713;53.254;6.460;2023-05-19T06:32:27;16.83;;;6.57;;
51636;SDS011;37713;53.254;6.460;2023-05-19T06:34:53;13.85;;;6.32;;
51636;SDS011;37713;53.254;6.460;2023-05-19T06:37:23;18.52;;;7.13;;
51636;SDS011;37713;53.254;6.460;2023-05-19T06:39:50;15.75;;;5.82;;
51636;SDS011;37713;53.254;6.460;2023-05-19T06:42:17;12.00;;;5.82;;
51636;SDS011;37713;53.254;6.460;2023-05-19T06:44:46;17.33;;;6.53;;
51636;SDS011;37713;53.254;6.460;2023-05-19T06:47:13;15.45;;;6.68;;
51636;SDS011;37713;53.254;6.460;2023-05-19T06:49:40;12.27;;;5.45;;
51636;SDS011;37713;53.254;6.460;2023-05-19T06:52:06;15.88;;;5.93;;
51636;SDS011;37713;53.254;6.460;2023-05-19T06:54:32;13.82;;;6.13;;
51636;SDS011;37713;53.254;6.460;2023-05-19T06:56:58;11.85;;;5.32;;
51636;SDS011;37713;53.254;6.460;2023-05-19T06:59:23;12.18;;;5.25;;
51636;SDS011;37713;53.254;6.460;2023-05-19T07:01:49;12.63;;;4.70;;
51636;SDS011;37713;53.254;6.460;2023-05-19T07:04:15;10.10;;;4.78;;
51636;SDS011;37713;53.254;6.460;2023-05-19T07:06:41;10.23;;;4.10;;
51636;SDS011;37713;53.254;6.460;2023-05-19T07:09:07;11.18;;;4.22;;
51636;SDS011;37713;53.254;6.460;2023-05-19T07:11:33;12.65;;;4.35;;
51636;SDS011;37713;53.254;6.460;2023-05-19T07:13:59;13.25;;;4.25;;
51636;SDS011;37713;53.254;6.460;2023-05-19T07:16:25;10.30;;;3.90;;
51636;SDS011;37713;53.254;6.460;2023-05-19T07:18:50;8.95;;;3.40;;
51636;SDS011;37713;53.254;6.460;2023-05-19T07:21:16;8.45;;;3.92;;
51636;SDS011;37713;53.254;6.460;2023-05-19T07:23:42;9.90;;;3.90;;
51636;SDS011;37713;53.254;6.460;2023-05-19T07:26:08;9.10;;;3.38;;
51636;SDS011;37713;53.254;6.460;2023-05-19T07:28:33;10.23;;;4.10;;
51636;SDS011;37713;53.254;6.460;2023-05-19T07:30:59;11.07;;;3.42;;
51636;SDS011;37713;53.254;6.460;2023-05-19T07:33:25;9.20;;;2.85;;
51636;SDS011;37713;53.254;6.460;2023-05-19T07:35:51;9.10;;;3.17;;
51636;SDS011;37713;53.254;6.460;2023-05-19T07:38:17;9.57;;;3.28;;
51636;SDS011;37713;53.254;6.460;2023-05-19T07:40:43;10.45;;;3.17;;
51636;SDS011;37713;53.254;6.460;2023-05-19T07:43:09;10.43;;;3.13;;
51636;SDS011;37713;53.254;6.460;2023-05-19T07:45:35;9.00;;;3.55;;
51636;SDS011;37713;53.254;6.460;2023-05-19T07:48:02;13.73;;;3.25;;
51636;SDS011;37713;53.254;6.460;2023-05-19T07:50:28;11.50;;;3.28;;
51636;SDS011;37713;53.254;6.460;2023-05-19T07:52:54;11.02;;;3.03;;
51636;SDS011;37713;53.254;6.460;2023-05-19T07:55:19;12.98;;;3.45;;
51636;SDS011;37713;53.254;6.460;2023-05-19T07:57:48;11.00;;;3.10;;
51636;SDS011;37713;53.254;6.460;2023-05-19T08:00:14;8.25;;;2.83;;
51636;SDS011;37713;53.254;6.460;2023-05-19T08:02:40;8.82;;;2.95;;
51636;SDS011;37713;53.254;6.460;2023-05-19T08:05:06;9.45;;;3.13;;
51636;SDS011;37713;53.254;6.460;2023-05-19T08:07:33;7.20;;;2.47;;
51636;SDS011;37713;53.254;6.460;2023-05-19T08:10:00;10.55;;;3.13;;
51636;SDS011;37713;53.254;6.460;2023-05-19T08:12:26;10.93;;;3.55;;
51636;SDS011;37713;53.254;6.460;2023-05-19T08:14:52;9.63;;;2.95;;
51636;SDS011;37713;53.254;6.460;2023-05-19T08:17:18;10.20;;;3.13;;
51636;SDS011;37713;53.254;6.460;2023-05-19T08:19:44;9.27;;;3.40;;
51636;SDS011;37713;53.254;6.460;2023-05-19T08:22:09;7.35;;;2.47;;
51636;SDS011;37713;53.254;6.460;2023-05-19T08:24:35;10.70;;;2.78;;
51636;SDS011;37713;53.254;6.460;2023-05-19T08:27:02;9.60;;;3.13;;
51636;SDS011;37713;53.254;6.460;2023-05-19T08:29:29;10.27;;;3.17;;
51636;SDS011;37713;53.254;6.460;2023-05-19T08:31:55;9.27;;;3.10;;
51636;SDS011;37713;53.254;6.460;2023-05-19T08:34:22;11.73;;;2.92;;
51636;SDS011;37713;53.254;6.460;2023-05-19T08:36:48;10.45;;;3.20;;
51636;SDS011;37713;53.254;6.460;2023-05-19T08:39:14;9.73;;;2.90;;
51636;SDS011;37713;53.254;6.460;2023-05-19T08:41:42;8.23;;;2.97;;
51636;SDS011;37713;53.254;6.460;2023-05-19T08:44:08;8.63;;;3.28;;
51636;SDS011;37713;53.254;6.460;2023-05-19T08:46:34;8.75;;;3.13;;
51636;SDS011;37713;53.254;6.460;2023-05-19T08:49:09;9.43;;;3.38;;
51636;SDS011;37713;53.254;6.460;2023-05-19T08:54:29;12.27;;;3.50;;
51636;SDS011;37713;53.254;6.460;2023-05-19T08:57:04;14.27;;;3.53;;
51636;SDS011;37713;53.254;6.460;2023-05-19T08:59:31;6.63;;;3.35;;
51636;SDS011;37713;53.254;6.460;2023-05-19T09:01:57;8.88;;;3.33;;
51636;SDS011;37713;53.254;6.460;2023-05-19T09:04:23;9.45;;;3.10;;
51636;SDS011;37713;53.254;6.460;2023-05-19T09:06:52;10.43;;;3.10;;
51636;SDS011;37713;53.254;6.460;2023-05-19T09:09:18;9.63;;;3.28;;
51636;SDS011;37713;53.254;6.460;2023-05-19T09:11:45;9.98;;;3.20;;
51636;SDS011;37713;53.254;6.460;2023-05-19T09:14:11;7.32;;;2.88;;
51636;SDS011;37713;53.254;6.460;2023-05-19T09:16:36;8.85;;;3.20;;
51636;SDS011;37713;53.254;6.460;2023-05-19T09:19:03;10.05;;;3.40;;
51636;SDS011;37713;53.254;6.460;2023-05-19T09:21:29;10.77;;;3.60;;
51636;SDS011;37713;53.254;6.460;2023-05-19T09:23:56;11.00;;;3.22;;
51636;SDS011;37713;53.254;6.460;2023-05-19T09:26:39;9.15;;;3.13;;
51636;SDS011;37713;53.254;6.460;2023-05-19T09:29:13;10.13;;;3.15;;
51636;SDS011;37713;53.254;6.460;2023-05-19T09:31:49;16.58;;;3.10;;
51636;SDS011;37713;53.254;6.460;2023-05-19T09:36:51;11.15;;;3.22;;
51636;SDS011;37713;53.254;6.460;2023-05-19T09:39:18;11.98;;;2.97;;
51636;SDS011;37713;53.254;6.460;2023-05-19T09:41:45;11.15;;;3.33;;
51636;SDS011;37713;53.254;6.460;2023-05-19T09:44:21;8.13;;;3.03;;
51636;SDS011;37713;53.254;6.460;2023-05-19T09:46:51;7.22;;;2.45;;
51636;SDS011;37713;53.254;6.460;2023-05-19T09:49:21;11.85;;;3.40;;
51636;SDS011;37713;53.254;6.460;2023-05-19T09:51:54;8.90;;;2.90;;
51636;SDS011;37713;53.254;6.460;2023-05-19T09:54:21;8.38;;;2.80;;
51636;SDS011;37713;53.254;6.460;2023-05-19T09:56:58;8.35;;;2.47;;
51636;SDS011;37713;53.254;6.460;2023-05-19T09:59:25;9.80;;;2.70;;
51636;SDS011;37713;53.254;6.460;2023-05-19T10:01:53;9.32;;;2.90;;
51636;SDS011;37713;53.254;6.460;2023-05-19T10:04:21;9.02;;;3.28;;
51636;SDS011;37713;53.254;6.460;2023-05-19T10:06:52;10.63;;;3.13;;
51636;SDS011;37713;53.254;6.460;2023-05-19T10:09:22;13.13;;;3.13;;
51636;SDS011;37713;53.254;6.460;2023-05-19T10:11:51;9.65;;;2.67;;
51636;SDS011;37713;53.254;6.460;2023-05-19T10:14:22;8.85;;;2.58;;
51636;SDS011;37713;53.254;6.460;2023-05-19T10:16:56;6.07;;;2.30;;
51636;SDS011;37713;53.254;6.460;2023-05-19T10:19:24;6.50;;;2.40;;
51636;SDS011;37713;53.254;6.460;2023-05-19T10:21:52;8.88;;;2.70;;
51636;SDS011;37713;53.254;6.460;2023-05-19T10:24:19;9.45;;;2.72;;
51636;SDS011;37713;53.254;6.460;2023-05-19T10:26:46;10.35;;;2.67;;
51636;SDS011;37713;53.254;6.460;2023-05-19T10:29:35;8.77;;;2.65;;
51636;SDS011;37713;53.254;6.460;2023-05-19T10:32:05;9.90;;;2.70;;
51636;SDS011;37713;53.254;6.460;2023-05-19T10:37:33;7.10;;;2.30;;
51636;SDS011;37713;53.254;6.460;2023-05-19T10:40:28;9.40;;;2.67;;
51636;SDS011;37713;53.254;6.460;2023-05-19T10:43:10;8.25;;;2.67;;
51636;SDS011;37713;53.254;6.460;2023-05-19T10:45:53;10.38;;;2.63;;
51636;SDS011;37713;53.254;6.460;2023-05-19T10:48:19;12.18;;;3.42;;
51636;SDS011;37713;53.254;6.460;2023-05-19T10:50:47;8.55;;;3.22;;
51636;SDS011;37713;53.254;6.460;2023-05-19T10:53:16;9.70;;;3.17;;
51636;SDS011;37713;53.254;6.460;2023-05-19T10:55:44;10.88;;;3.35;;
51636;SDS011;37713;53.254;6.460;2023-05-19T11:01:06;9.55;;;2.70;;
51636;SDS011;37713;53.254;6.460;2023-05-19T11:03:49;8.27;;;2.88;;
51636;SDS011;37713;53.254;6.460;2023-05-19T11:06:19;9.73;;;2.80;;
51636;SDS011;37713;53.254;6.460;2023-05-19T11:08:56;10.07;;;2.80;;
51636;SDS011;37713;53.254;6.460;2023-05-19T11:11:25;7.32;;;2.90;;
51636;SDS011;37713;53.254;6.460;2023-05-19T11:13:52;9.43;;;3.00;;
51636;SDS011;37713;53.254;6.460;2023-05-19T11:16:28;12.02;;;3.22;;
51636;SDS011;37713;53.254;6.460;2023-05-19T11:18:59;8.45;;;3.28;;
51636;SDS011;37713;53.254;6.460;2023-05-19T11:21:41;9.57;;;3.53;;
51636;SDS011;37713;53.254;6.460;2023-05-19T11:26:57;11.70;;;3.63;;
51636;SDS011;37713;53.254;6.460;2023-05-19T11:29:23;9.02;;;3.22;;
51636;SDS011;37713;53.254;6.460;2023-05-19T11:31:49;10.48;;;3.47;;
51636;SDS011;37713;53.254;6.460;2023-05-19T11:34:15;9.90;;;3.30;;
51636;SDS011;37713;53.254;6.460;2023-05-19T11:36:42;9.45;;;3.42;;
51636;SDS011;37713;53.254;6.460;2023-05-19T11:39:09;8.93;;;3.00;;
51636;SDS011;37713;53.254;6.460;2023-05-19T11:41:39;10.95;;;3.38;;
51636;SDS011;37713;53.254;6.460;2023-05-19T11:44:11;9.03;;;3.27;;
51636;SDS011;37713;53.254;6.460;2023-05-19T11:46:37;8.52;;;3.20;;
51636;SDS011;37713;53.254;6.460;2023-05-19T11:49:03;8.65;;;3.50;;
51636;SDS011;37713;53.254;6.460;2023-05-19T11:51:29;10.00;;;3.13;;
51636;SDS011;37713;53.254;6.460;2023-05-19T11:53:56;8.27;;;3.13;;
51636;SDS011;37713;53.254;6.460;2023-05-19T11:56:22;12.52;;;2.83;;
51636;SDS011;37713;53.254;6.460;2023-05-19T11:58:48;8.88;;;2.80;;
51636;SDS011;37713;53.254;6.460;2023-05-19T12:01:17;9.57;;;3.20;;
51636;SDS011;37713;53.254;6.460;2023-05-19T12:03:43;7.90;;;2.70;;
51636;SDS011;37713;53.254;6.460;2023-05-19T12:06:09;11.63;;;3.20;;
51636;SDS011;37713;53.254;6.460;2023-05-19T12:08:34;11.40;;;3.25;;
51636;SDS011;37713;53.254;6.460;2023-05-19T12:11:01;8.85;;;3.28;;
51636;SDS011;37713;53.254;6.460;2023-05-19T12:13:28;8.48;;;2.83;;
51636;SDS011;37713;53.254;6.460;2023-05-19T12:15:57;13.20;;;2.83;;
51636;SDS011;37713;53.254;6.460;2023-05-19T12:18:26;9.10;;;2.75;;
51636;SDS011;37713;53.254;6.460;2023-05-19T12:21:00;10.27;;;2.80;;
51636;SDS011;37713;53.254;6.460;2023-05-19T12:23:26;8.38;;;3.22;;
51636;SDS011;37713;53.254;6.460;2023-05-19T12:25:55;7.85;;;2.90;;
51636;SDS011;37713;53.254;6.460;2023-05-19T12:28:22;9.52;;;3.30;;
51636;SDS011;37713;53.254;6.460;2023-05-19T12:30:50;9.27;;;3.13;;
51636;SDS011;37713;53.254;6.460;2023-05-19T12:33:17;12.13;;;2.83;;
51636;SDS011;37713;53.254;6.460;2023-05-19T12:35:44;6.40;;;2.25;;
51636;SDS011;37713;53.254;6.460;2023-05-19T12:38:12;9.95;;;2.50;;
51636;SDS011;37713;53.254;6.460;2023-05-19T12:40:40;10.23;;;2.70;;
51636;SDS011;37713;53.254;6.460;2023-05-19T12:43:07;12.10;;;2.72;;
51636;SDS011;37713;53.254;6.460;2023-05-19T12:45:34;9.80;;;2.30;;
51636;SDS011;37713;53.254;6.460;2023-05-19T12:48:10;9.02;;;2.60;;
51636;SDS011;37713;53.254;6.460;2023-05-19T12:50:36;8.98;;;2.40;;
51636;SDS011;37713;53.254;6.460;2023-05-19T12:53:02;10.18;;;2.63;;
51636;SDS011;37713;53.254;6.460;2023-05-19T12:55:43;7.38;;;2.40;;
51636;SDS011;37713;53.254;6.460;2023-05-19T12:58:10;8.13;;;2.60;;
51636;SDS011;37713;53.254;6.460;2023-05-19T13:00:44;7.25;;;2.83;;
51636;SDS011;37713;53.254;6.460;2023-05-19T13:03:14;8.23;;;2.40;;
51636;SDS011;37713;53.254;6.460;2023-05-19T13:05:42;9.10;;;2.50;;
51636;SDS011;37713;53.254;6.460;2023-05-19T13:08:11;8.37;;;2.80;;
51636;SDS011;37713;53.254;6.460;2023-05-19T13:10:42;10.20;;;2.40;;
51636;SDS011;37713;53.254;6.460;2023-05-19T13:13:08;8.43;;;3.17;;
51636;SDS011;37713;53.254;6.460;2023-05-19T13:15:53;11.15;;;2.97;;
51636;SDS011;37713;53.254;6.460;2023-05-19T13:18:19;11.07;;;2.72;;
51636;SDS011;37713;53.254;6.460;2023-05-19T13:20:45;13.65;;;3.80;;
51636;SDS011;37713;53.254;6.460;2023-05-19T13:23:14;13.55;;;4.32;;
51636;SDS011;37713;53.254;6.460;2023-05-19T13:25:40;12.05;;;4.70;;
51636;SDS011;37713;53.254;6.460;2023-05-19T13:28:06;14.25;;;4.43;;
51636;SDS011;37713;53.254;6.460;2023-05-19T13:30:36;11.20;;;3.40;;
51636;SDS011;37713;53.254;6.460;2023-05-19T13:33:04;10.43;;;3.75;;
51636;SDS011;37713;53.254;6.460;2023-05-19T13:35:30;11.07;;;4.50;;
51636;SDS011;37713;53.254;6.460;2023-05-19T13:38:04;11.65;;;3.97;;
51636;SDS011;37713;53.254;6.460;2023-05-19T13:40:32;7.95;;;3.88;;
51636;SDS011;37713;53.254;6.460;2023-05-19T13:42:58;14.35;;;4.50;;
51636;SDS011;37713;53.254;6.460;2023-05-19T13:45:25;12.57;;;4.22;;
51636;SDS011;37713;53.254;6.460;2023-05-19T13:47:51;12.80;;;4.68;;
51636;SDS011;37713;53.254;6.460;2023-05-19T13:50:17;12.48;;;4.25;;
51636;SDS011;37713;53.254;6.460;2023-05-19T13:52:43;10.35;;;4.00;;
51636;SDS011;37713;53.254;6.460;2023-05-19T13:55:08;9.55;;;3.97;;
51636;SDS011;37713;53.254;6.460;2023-05-19T13:57:34;11.85;;;4.28;;
51636;SDS011;37713;53.254;6.460;2023-05-19T14:00:01;11.82;;;4.55;;
51636;SDS011;37713;53.254;6.460;2023-05-19T14:02:28;13.23;;;4.25;;
51636;SDS011;37713;53.254;6.460;2023-05-19T14:04:54;12.90;;;4.65;;
51636;SDS011;37713;53.254;6.460;2023-05-19T14:07:19;10.40;;;4.22;;
51636;SDS011;37713;53.254;6.460;2023-05-19T14:09:45;12.02;;;4.95;;
51636;SDS011;37713;53.254;6.460;2023-05-19T14:12:11;13.90;;;5.07;;
51636;SDS011;37713;53.254;6.460;2023-05-19T14:14:37;12.90;;;4.55;;
51636;SDS011;37713;53.254;6.460;2023-05-19T14:17:04;13.80;;;4.85;;
51636;SDS011;37713;53.254;6.460;2023-05-19T14:19:29;11.68;;;4.57;;
51636;SDS011;37713;53.254;6.460;2023-05-19T14:21:55;10.40;;;4.20;;
51636;SDS011;37713;53.254;6.460;2023-05-19T14:24:21;14.13;;;4.82;;
51636;SDS011;37713;53.254;6.460;2023-05-19T14:26:48;12.25;;;4.60;;
51636;SDS011;37713;53.254;6.460;2023-05-19T14:29:14;13.73;;;4.18;;
51636;SDS011;37713;53.254;6.460;2023-05-19T14:31:40;11.45;;;4.25;;
51636;SDS011;37713;53.254;6.460;2023-05-19T14:34:05;12.25;;;4.20;;
51636;SDS011;37713;53.254;6.460;2023-05-19T14:36:31;14.82;;;4.72;;
51636;SDS011;37713;53.254;6.460;2023-05-19T14:38:59;13.95;;;4.43;;
51636;SDS011;37713;53.254;6.460;2023-05-19T14:41:25;13.40;;;4.00;;
51636;SDS011;37713;53.254;6.460;2023-05-19T14:43:51;10.57;;;4.40;;
51636;SDS011;37713;53.254;6.460;2023-05-19T14:46:17;11.63;;;4.00;;
51636;SDS011;37713;53.254;6.460;2023-05-19T14:48:42;12.02;;;3.60;;
51636;SDS011;37713;53.254;6.460;2023-05-19T14:51:08;13.75;;;3.95;;
51636;SDS011;37713;53.254;6.460;2023-05-19T14:53:34;13.68;;;3.47;;
51636;SDS011;37713;53.254;6.460;2023-05-19T14:56:00;11.27;;;3.85;;
51636;SDS011;37713;53.254;6.460;2023-05-19T14:58:25;10.27;;;3.70;;
51636;SDS011;37713;53.254;6.460;2023-05-19T15:00:51;12.00;;;4.18;;
51636;SDS011;37713;53.254;6.460;2023-05-19T15:03:17;12.05;;;3.47;;
51636;SDS011;37713;53.254;6.460;2023-05-19T15:05:43;12.27;;;3.17;;
51636;SDS011;37713;53.254;6.460;2023-05-19T15:08:10;8.45;;;3.22;;
51636;SDS011;37713;53.254;6.460;2023-05-19T15:10:36;13.82;;;3.55;;
51636;SDS011;37713;53.254;6.460;2023-05-19T15:13:01;8.05;;;2.97;;
51636;SDS011;37713;53.254;6.460;2023-05-19T15:15:28;13.35;;;3.20;;